Apison, Tennessee
Current Conditions -  °F | °C
As of 9:53 AM on Friday 19 Dec 2014 (Local Time) from KCHA Reporting Station
Broken Clouds Broken Clouds  
Wind Chill: 33°   Ceiling: 25000
Heat Index: 39°   Visibility: 10mi
Dew Point: 29°   Wind: 9mph
Humidity: 67%   Direction: 10°N
Pressure: 30.23"   Gusts: NA
Location:  35.02°N, 85.02°W
Report Text: KCHA 191453Z 01008KT 10SM SCT050 SCT150 BKN250 04/M02 A3023 RMK AO2 SLP238 T00391017 53006
Loading
Personal Weather Stations






























Interactive Weather Map New forecast layout! Learn more

10-Day Weather Forecast

Advertisements
Track Severe Weather on mobile